Time;durP1;ratioP1;P1;durP2;ratioP2;P2;SDS_P1;SDS_P2;PMS_P1;PMS_P2;Temp;Humidity;BMP_temperature;BMP_pressure;BME280_temperature;BME280_humidity;BME280_pressure;Samples;Min_cycle;Max_cycle;Signal;HPM_P1;HPM_P2
2022/09/09 00:01:56;;;;;;;1.98;1.20;;;;;;;14.89;80.60;98092.81;4238951;27;20062;-71
2022/09/09 00:04:05;;;;;;;3.63;1.30;;;;;;;14.83;80.60;98093.69;4138878;28;20092;-71
2022/09/09 00:06:29;;;;;;;2.05;1.25;;;;;;;14.76;80.60;98090.97;4138468;28;20073;-71
2022/09/09 00:08:57;;;;;;;2.17;1.20;;;;;;;14.72;80.98;98090.22;4156927;27;20575;-71
2022/09/09 00:11:04;;;;;;;3.13;1.30;;;;;;;14.67;81.58;98085.91;4238938;27;20067;-71
2022/09/09 00:13:33;;;;;;;1.60;1.17;;;;;;;14.69;81.40;98085.50;4239260;27;20393;-71
2022/09/09 00:15:42;;;;;;;2.92;1.02;;;;;;;14.69;81.80;98096.63;4237579;27;20035;-71
2022/09/09 00:17:55;;;;;;;3.85;1.30;;;;;;;14.69;81.27;98088.28;4238823;27;20058;-71
2022/09/09 00:20:16;;;;;;;4.40;1.30;;;;;;;14.70;81.75;98092.63;4219272;28;20212;-72
2022/09/09 00:22:19;;;;;;;2.00;1.52;;;;;;;14.69;81.38;98082.69;4237757;27;20046;-72
2022/09/09 00:24:36;;;;;;;2.78;1.17;;;;;;;14.69;81.26;98083.50;4238401;27;20105;-71
2022/09/09 00:26:42;;;;;;;3.47;1.17;;;;;;;14.67;81.50;98073.97;4237577;27;20387;-71
2022/09/09 00:28:58;;;;;;;1.55;1.15;;;;;;;14.67;81.28;98088.69;4237360;27;20300;-71
2022/09/09 00:31:12;;;;;;;1.83;1.20;;;;;;;14.66;82.03;98078.75;4238286;27;20542;-71
2022/09/09 00:33:15;;;;;;;2.22;1.35;;;;;;;14.67;81.73;98077.56;4238789;27;20469;-71
2022/09/09 00:35:18;;;;;;;1.92;1.27;;;;;;;14.69;81.55;98075.13;4237706;27;20047;-71
2022/09/09 00:37:21;;;;;;;3.17;1.20;;;;;;;14.70;81.44;98073.94;4238396;27;20075;-71
2022/09/09 00:39:32;;;;;;;;;;;;;;;14.70;81.27;98065.56;4238135;27;20252;-71
2022/09/09 00:42:08;;;;;;;2.13;1.35;;;;;;;14.73;81.43;98078.69;4238228;27;19919;-72
2022/09/09 00:44:28;;;;;;;2.58;1.20;;;;;;;14.78;81.17;98081.00;4238225;27;20047;-71
2022/09/09 00:46:34;;;;;;;1.80;1.17;;;;;;;14.82;81.31;98073.41;4238337;27;20102;-71
2022/09/09 00:49:04;;;;;;;1.88;1.10;;;;;;;14.78;81.01;98069.84;4237396;27;20497;-71
2022/09/09 00:51:21;;;;;;;3.00;1.10;;;;;;;14.80;80.90;98070.22;4237758;27;20434;-71
2022/09/09 00:53:32;;;;;;;3.00;1.30;;;;;;;14.78;80.98;98072.66;4238306;27;20054;-71
2022/09/09 00:55:57;;;;;;;1.50;1.08;;;;;;;14.74;80.88;98071.91;4238421;27;20046;-71
2022/09/09 00:57:58;;;;;;;2.63;1.08;;;;;;;14.71;80.89;98069.94;4237575;27;20031;-71
2022/09/09 01:00:20;;;;;;;3.13;1.20;;;;;;;14.68;80.65;98067.22;4236671;27;20498;-71
2022/09/09 01:02:49;;;;;;;4.85;1.48;;;;;;;14.63;81.34;98064.88;4237554;27;20070;-71
2022/09/09 01:04:49;;;;;;;1.55;1.02;;;;;;;14.61;81.34;98063.28;4237617;27;20092;-71
2022/09/09 01:07:00;;;;;;;5.57;1.30;;;;;;;14.60;82.32;98060.94;4237832;27;20420;-71
2022/09/09 01:09:23;;;;;;;4.40;1.40;;;;;;;14.60;81.75;98072.06;4236986;27;20047;-71
2022/09/09 01:11:36;;;;;;;5.70;1.10;;;;;;;14.59;81.72;98068.50;4237888;27;20204;-71
2022/09/09 01:13:36;;;;;;;3.65;0.98;;;;;;;14.59;81.50;98076.06;4237223;27;20047;-71
2022/09/09 01:15:39;;;;;;;6.40;1.80;;;;;;;14.60;81.65;98072.06;4237740;27;20039;-71
2022/09/09 01:17:52;;;;;;;1.45;1.13;;;;;;;14.55;81.82;98076.06;4237244;27;20046;-71
2022/09/09 01:20:02;;;;;;;2.85;1.48;;;;;;;14.48;82.30;98070.63;4236632;27;20051;-71
2022/09/09 01:22:31;;;;;;;2.70;1.35;;;;;;;14.51;81.98;98074.56;4237396;27;20047;-71
2022/09/09 01:24:40;;;;;;;1.40;1.00;;;;;;;14.51;82.63;98075.34;4237577;27;20075;-71
2022/09/09 01:26:45;;;;;;;2.40;1.02;;;;;;;14.56;82.19;98068.50;4237184;27;20479;-71
2022/09/09 01:28:48;;;;;;;2.70;1.02;;;;;;;14.55;81.63;98078.84;4236579;27;20039;-71
2022/09/09 01:30:49;;;;;;;2.08;1.00;;;;;;;14.53;82.33;98074.91;4237101;27;20677;-71
2022/09/09 01:32:53;;;;;;;3.75;1.30;;;;;;;14.53;81.81;98070.13;4237128;27;20047;-71
2022/09/09 01:34:53;;;;;;;1.80;1.08;;;;;;;14.55;82.03;98066.94;4237610;27;20043;-71
2022/09/09 01:37:02;;;;;;;3.83;1.30;;;;;;;14.64;82.07;98069.22;4237750;27;20130;-71
2022/09/09 01:39:02;;;;;;;3.22;1.10;;;;;;;14.72;81.47;98079.06;4236743;27;20122;-71
2022/09/09 01:41:03;;;;;;;2.58;1.10;;;;;;;14.74;81.16;98071.13;4237418;27;20070;-71
2022/09/09 01:43:04;;;;;;;2.97;1.27;;;;;;;14.77;81.24;98070.28;4236926;27;20039;-71
2022/09/09 01:45:05;;;;;;;3.67;2.00;;;;;;;14.73;81.03;98067.53;4219296;28;20902;-72
2022/09/09 01:47:06;;;;;;;3.97;1.33;;;;;;;14.74;81.26;98066.34;4218230;28;20055;-71
2022/09/09 01:49:08;;;;;;;2.05;1.10;;;;;;;14.74;81.59;98066.34;4236603;27;20083;-71
2022/09/09 01:51:12;;;;;;;1.95;1.27;;;;;;;14.74;81.19;98071.91;4237250;27;20053;-71
2022/09/09 01:53:16;;;;;;;3.03;1.20;;;;;;;14.71;81.02;98069.94;4237696;27;20047;-71
2022/09/09 01:55:22;;;;;;;3.60;1.30;;;;;;;14.73;80.95;98070.34;4237510;27;20134;-71
2022/09/09 01:57:30;;;;;;;2.92;1.30;;;;;;;14.69;81.05;98069.56;4236449;27;20452;-71
2022/09/09 01:59:57;;;;;;;1.90;1.00;;;;;;;14.66;81.30;98069.63;4236256;27;20477;-72
2022/09/09 02:02:03;;;;;;;3.17;1.20;;;;;;;14.64;81.51;98078.38;4235515;27;20491;-71
2022/09/09 02:04:13;;;;;;;2.70;1.20;;;;;;;14.57;81.75;98073.69;4235005;27;20063;-71
2022/09/09 02:06:37;;;;;;;1.20;0.90;;;;;;;14.55;82.11;98083.63;4237236;27;20587;-71
2022/09/09 02:08:49;;;;;;;3.35;1.20;;;;;;;14.51;81.86;98082.91;4235885;27;20414;-71
2022/09/09 02:11:01;;;;;;;1.13;0.97;;;;;;;14.47;82.57;98085.72;4236839;27;20047;-71
2022/09/09 02:13:10;;;;;;;2.58;1.30;;;;;;;14.46;82.35;98080.56;4236306;27;20043;-72
2022/09/09 02:15:35;;;;;;;1.90;1.15;;;;;;;14.46;82.31;98077.78;4236823;27;20402;-72
2022/09/09 02:17:39;;;;;;;2.30;1.38;;;;;;;14.49;82.43;98085.31;4235949;27;20490;-72
2022/09/09 02:19:48;;;;;;;1.45;1.05;;;;;;;14.50;82.61;98082.13;4235763;27;20050;-71
2022/09/09 02:21:50;;;;;;;4.32;1.30;;;;;;;14.52;82.53;98081.69;4236869;27;20416;-71
2022/09/09 02:23:52;;;;;;;2.72;1.13;;;;;;;14.57;82.62;98093.19;4236791;27;20051;-71
2022/09/09 02:25:54;;;;;;;;;;;;;;;14.65;82.05;98081.97;4237405;27;20031;-71
2022/09/09 02:27:55;;;;;;;2.92;1.15;;;;;;;14.66;81.79;98083.53;4236205;27;19919;-71
2022/09/09 02:29:57;;;;;;;1.58;1.13;;;;;;;14.67;81.48;98085.13;4236040;27;20779;-72
2022/09/09 02:32:02;;;;;;;2.78;1.20;;;;;;;14.65;81.53;98084.75;4236443;27;20047;-72
2022/09/09 02:34:06;;;;;;;2.25;1.23;;;;;;;14.69;81.55;98097.41;4236704;27;20043;-72
2022/09/09 02:36:08;;;;;;;2.53;1.38;;;;;;;14.65;81.37;98088.31;4236389;27;20481;-71
2022/09/09 02:38:13;;;;;;;3.80;0.98;;;;;;;14.66;81.51;98089.13;4236507;27;20133;-71
2022/09/09 02:40:15;;;;;;;4.07;1.70;;;;;;;14.62;81.49;98083.56;4235801;27;20037;-72
2022/09/09 02:42:16;;;;;;;4.88;1.42;;;;;;;14.63;81.35;98082.34;4236557;27;20057;-71
2022/09/09 02:44:18;;;;;;;2.42;1.00;;;;;;;14.61;81.46;98082.78;4236700;27;20463;-71
2022/09/09 02:46:28;;;;;;;2.65;1.35;;;;;;;14.59;81.46;98087.97;4235237;27;20066;-71
2022/09/09 02:48:34;;;;;;;3.13;1.60;;;;;;;14.58;81.83;98088.41;4235512;27;20054;-71
2022/09/09 02:50:48;;;;;;;1.60;0.95;;;;;;;14.63;81.59;98089.94;4235474;27;20039;-71
2022/09/09 02:53:10;;;;;;;3.75;1.40;;;;;;;14.63;81.44;98078.78;4236346;27;20266;-71
2022/09/09 02:55:36;;;;;;;3.10;1.30;;;;;;;14.58;81.46;98075.25;4236892;28;20078;-71
2022/09/09 02:57:38;;;;;;;3.92;1.10;;;;;;;14.54;81.49;98077.28;4235397;28;20432;-72
2022/09/09 02:59:41;;;;;;;2.17;1.00;;;;;;;14.53;81.75;98077.69;4235469;28;20406;-71
2022/09/09 03:01:41;;;;;;;1.73;1.20;;;;;;;14.52;81.74;98079.69;4236002;28;20255;-71
2022/09/09 03:03:42;;;;;;;2.15;1.33;;;;;;;14.53;82.06;98080.47;4236505;28;20513;-71
2022/09/09 03:05:44;;;;;;;3.03;1.30;;;;;;;14.51;82.01;98082.91;4236921;28;20057;-71
2022/09/09 03:07:44;;;;;;;3.08;1.50;;;;;;;14.54;82.29;98088.41;4236240;28;20070;-71
2022/09/09 03:09:45;;;;;;;3.08;1.13;;;;;;;14.55;82.00;98081.66;4235437;28;20078;-71
2022/09/09 03:11:45;;;;;;;2.90;1.30;;;;;;;14.56;81.75;98086.03;4236421;28;20059;-71
2022/09/09 03:13:45;;;;;;;3.83;1.13;;;;;;;14.54;82.21;98094.00;4236142;28;20043;-71
2022/09/09 03:15:48;;;;;;;1.85;0.90;;;;;;;14.56;81.45;98099.94;4236069;28;20047;-72
2022/09/09 03:17:48;;;;;;;2.08;1.30;;;;;;;14.54;81.60;98095.97;4236074;28;20051;-72
2022/09/09 03:19:49;;;;;;;3.42;1.05;;;;;;;14.55;81.95;98090.00;4235512;28;20202;-71
2022/09/09 03:21:50;;;;;;;2.20;1.10;;;;;;;14.77;81.71;98087.00;4235800;28;20069;-71
2022/09/09 03:23:50;;;;;;;2.78;1.20;;;;;;;14.71;81.43;98083.06;4237631;27;20110;-71
2022/09/09 03:25:51;;;;;;;2.40;1.17;;;;;;;14.68;81.14;98081.13;4239916;27;20067;-71
2022/09/09 03:27:54;;;;;;;3.58;1.20;;;;;;;14.66;81.22;98081.56;4238963;27;20043;-71
2022/09/09 03:29:55;;;;;;;2.40;1.20;;;;;;;14.63;81.43;98084.34;4238540;27;20100;-71
2022/09/09 03:31:56;;;;;;;1.98;1.30;;;;;;;14.59;81.49;98085.19;4239213;27;20109;-71
2022/09/09 03:33:59;;;;;;;4.03;1.10;;;;;;;14.58;81.62;98075.25;4239137;27;20172;-72
2022/09/09 03:36:00;;;;;;;2.15;1.17;;;;;;;14.57;82.16;98104.31;4239460;27;20058;-72
2022/09/09 03:38:00;;;;;;;2.00;1.20;;;;;;;14.53;82.61;98089.63;4238637;27;20039;-71
2022/09/09 03:40:01;;;;;;;2.78;1.10;;;;;;;14.54;82.44;98087.63;4238461;27;20039;-72
2022/09/09 03:42:05;;;;;;;2.70;1.00;;;;;;;14.56;82.55;98093.56;4239368;27;20039;-72
2022/09/09 03:44:05;;;;;;;2.42;1.00;;;;;;;14.51;83.21;98083.69;4238399;27;20244;-72
2022/09/09 03:46:06;;;;;;;3.47;1.13;;;;;;;14.50;83.53;98092.47;4239081;27;20046;-72
2022/09/09 03:48:06;;;;;;;2.28;1.10;;;;;;;14.46;83.82;98086.13;4238970;27;20477;-72
2022/09/09 03:50:10;;;;;;;5.03;1.27;;;;;;;14.44;83.68;98082.94;4238688;27;20060;-72
2022/09/09 03:52:10;;;;;;;1.48;0.90;;;;;;;14.40;83.85;98088.56;4238981;27;20039;-72
2022/09/09 03:54:10;;;;;;;3.45;1.48;;;;;;;14.37;84.19;98086.59;4218850;28;20180;-72
2022/09/09 03:56:11;;;;;;;1.73;1.00;;;;;;;14.35;84.39;98089.00;4236329;27;20613;-71
2022/09/09 03:58:13;;;;;;;1.67;0.98;;;;;;;14.32;84.29;98093.41;4238208;27;20019;-71
2022/09/09 04:00:14;;;;;;;2.22;1.10;;;;;;;14.29;84.36;98090.63;4237910;27;20023;-71
2022/09/09 04:02:15;;;;;;;1.77;1.08;;;;;;;14.26;84.88;98097.81;4235301;27;20051;-71
2022/09/09 04:04:15;;;;;;;2.58;1.10;;;;;;;14.22;85.11;98093.47;4235283;27;20038;-71
2022/09/09 04:06:20;;;;;;;1.35;1.00;;;;;;;14.22;84.92;98099.84;4236991;27;20027;-71
2022/09/09 04:08:21;;;;;;;3.10;1.05;;;;;;;14.25;84.53;98084.31;4236327;27;20111;-71
2022/09/09 04:10:21;;;;;;;4.80;1.13;;;;;;;14.26;84.25;98089.47;4234123;27;20055;-72
2022/09/09 04:12:22;;;;;;;1.35;0.90;;;;;;;14.30;84.11;98078.28;4234474;27;20061;-71
2022/09/09 04:14:22;;;;;;;2.92;1.40;;;;;;;14.31;83.72;98068.75;4234322;27;20035;-72
2022/09/09 04:16:23;;;;;;;2.75;1.00;;;;;;;14.33;83.45;98066.34;4235259;27;20047;-71
2022/09/09 04:18:24;;;;;;;1.15;1.05;;;;;;;14.33;83.48;98067.16;4236852;27;20051;-71
2022/09/09 04:20:24;;;;;;;3.60;1.10;;;;;;;14.37;83.13;98060.75;4236802;27;20430;-71
2022/09/09 04:22:24;;;;;;;1.85;1.10;;;;;;;14.37;83.31;98061.53;4237447;27;20060;-71
2022/09/09 04:24:27;;;;;;;2.78;1.13;;;;;;;14.37;83.31;98071.88;4237496;27;20062;-71
2022/09/09 04:26:27;;;;;;;2.03;1.05;;;;;;;14.32;83.59;98068.34;4237851;27;20517;-71
2022/09/09 04:28:30;;;;;;;2.75;1.25;;;;;;;14.28;83.85;98062.03;4236191;27;20043;-72
2022/09/09 04:30:31;;;;;;;3.88;1.58;;;;;;;14.27;83.68;98065.22;4236789;27;20077;-71
2022/09/09 04:32:33;;;;;;;2.60;1.33;;;;;;;14.23;83.52;98068.06;4237187;27;20096;-72
2022/09/09 04:34:33;;;;;;;2.42;1.20;;;;;;;14.20;83.97;98077.19;4235005;27;20573;-71
2022/09/09 04:36:34;;;;;;;3.05;1.27;;;;;;;14.21;84.10;98064.06;4235468;27;20055;-71
2022/09/09 04:38:35;;;;;;;2.33;1.13;;;;;;;14.24;84.04;98066.06;4235728;27;20356;-72
2022/09/09 04:40:36;;;;;;;2.08;1.17;;;;;;;14.27;83.97;98068.78;4235929;27;20058;-71
2022/09/09 04:42:36;;;;;;;3.65;1.30;;;;;;;14.29;83.86;98079.50;4234836;27;20466;-72
2022/09/09 04:44:42;;;;;;;1.95;1.20;;;;;;;14.28;83.88;98073.16;4235281;27;20483;-71
2022/09/09 04:47:10;;;;;;;2.08;1.23;;;;;;;14.29;83.89;98087.84;4243728;27;20071;-71
2022/09/09 04:49:11;;;;;;;1.52;1.20;;;;;;;14.32;84.23;98078.69;4236400;27;21093;-71
2022/09/09 04:51:13;;;;;;;3.58;1.63;;;;;;;14.35;83.78;98077.88;4237610;27;20431;-72
2022/09/09 04:53:14;;;;;;;2.47;1.20;;;;;;;14.37;83.28;98074.66;4237738;27;20131;-72
2022/09/09 04:55:14;;;;;;;6.05;1.20;;;;;;;14.33;84.06;98075.50;4237407;27;20035;-72
2022/09/09 04:57:15;;;;;;;2.10;1.20;;;;;;;14.37;83.85;98075.44;4160809;27;20044;-72
2022/09/09 04:59:15;;;;;;;4.10;1.20;;;;;;;14.45;83.71;98077.00;4231545;27;20043;-71
2022/09/09 05:01:21;;;;;;;3.08;1.13;;;;;;;14.55;82.79;98073.28;4234962;27;20159;-71
2022/09/09 05:03:22;;;;;;;2.17;1.13;;;;;;;14.58;83.04;98082.84;4237059;27;20074;-71
2022/09/09 05:05:22;;;;;;;2.15;1.13;;;;;;;14.55;83.05;98084.44;4236208;27;20457;-71
2022/09/09 05:07:22;;;;;;;2.65;1.30;;;;;;;14.58;82.83;98083.63;4235626;27;20066;-72
2022/09/09 05:09:23;;;;;;;2.17;1.20;;;;;;;14.62;82.40;98072.44;4236063;27;20341;-71
2022/09/09 05:11:29;;;;;;;2.85;1.05;;;;;;;14.65;82.57;98077.19;4236129;27;20224;-71
2022/09/09 05:13:31;;;;;;;5.25;1.20;;;;;;;14.65;82.51;98082.75;4236369;27;20051;-71
2022/09/09 05:15:32;;;;;;;3.10;1.15;;;;;;;14.64;82.15;98083.94;4235846;27;20043;-71
2022/09/09 05:17:33;;;;;;;4.18;1.33;;;;;;;14.65;82.58;98091.09;4237273;27;20076;-71
2022/09/09 05:19:34;;;;;;;3.42;1.30;;;;;;;14.65;82.44;98085.53;4236750;27;20063;-71
2022/09/09 05:21:34;;;;;;;4.05;1.10;;;;;;;14.64;82.27;98095.06;4237759;27;20473;-71
2022/09/09 05:23:45;;;;;;;1.98;1.30;;;;;;;14.61;83.17;98096.69;4237792;27;20131;-71
2022/09/09 05:25:55;;;;;;;2.40;1.17;;;;;;;14.63;82.93;98090.72;4235617;27;20050;-71
2022/09/09 05:27:56;;;;;;;3.67;1.15;;;;;;;14.69;82.80;98100.19;4236655;27;20364;-71
2022/09/09 05:29:57;;;;;;;3.30;1.17;;;;;;;14.66;82.77;98089.91;4236415;27;20050;-71
2022/09/09 05:31:58;;;;;;;3.73;1.50;;;;;;;14.66;82.83;98097.47;4236182;27;20051;-71
2022/09/09 05:33:59;;;;;;;3.40;1.25;;;;;;;14.65;82.81;98093.09;4236918;27;20498;-71
2022/09/09 05:36:01;;;;;;;3.00;1.30;;;;;;;14.61;82.91;98102.28;4236374;27;20515;-71
2022/09/09 05:38:01;;;;;;;;;;;;;;;14.64;82.53;98094.28;4237364;27;20097;-71
2022/09/09 05:40:02;;;;;;;3.65;1.48;;;;;;;14.59;82.98;98089.97;4235906;27;19920;-71
2022/09/09 05:42:03;;;;;;;5.00;1.42;;;;;;;14.60;83.11;98097.91;4235932;27;20027;-71
2022/09/09 05:44:04;;;;;;;2.92;1.40;;;;;;;14.61;83.10;98104.25;4236868;27;20148;-71
2022/09/09 05:46:10;;;;;;;2.63;1.50;;;;;;;14.59;82.50;98085.19;4236728;27;20061;-71
2022/09/09 05:48:10;;;;;;;3.22;1.20;;;;;;;14.64;82.64;98097.06;4235971;27;20537;-71
2022/09/09 05:50:11;;;;;;;3.83;1.20;;;;;;;14.64;82.72;98092.28;4235891;27;20114;-72
2022/09/09 05:52:11;;;;;;;3.72;1.17;;;;;;;14.68;82.50;98106.19;4236103;27;20122;-72
2022/09/09 05:54:15;;;;;;;6.07;2.22;;;;;;;14.71;82.66;98100.56;4236493;27;20323;-71
2022/09/09 05:56:21;;;;;;;3.75;1.33;;;;;;;14.72;82.55;98093.78;4237378;27;20072;-71
2022/09/09 05:58:22;;;;;;;4.53;1.77;;;;;;;14.78;82.50;98108.84;4236867;27;20042;-71
2022/09/09 06:00:22;;;;;;;5.40;1.42;;;;;;;14.82;82.54;98115.19;4236375;27;20070;-71
2022/09/09 06:02:23;;;;;;;3.00;1.30;;;;;;;14.87;82.13;98119.50;4236881;27;20184;-71
2022/09/09 06:04:24;;;;;;;2.95;1.40;;;;;;;14.94;82.14;98115.84;4237189;27;20066;-71
2022/09/09 06:06:27;;;;;;;2.83;1.38;;;;;;;14.99;81.84;98115.38;4236884;27;20711;-71
2022/09/09 06:08:27;;;;;;;1.92;1.35;;;;;;;15.04;81.49;98110.13;4236438;27;20161;-71
2022/09/09 06:10:28;;;;;;;2.97;1.40;;;;;;;15.09;81.68;98112.47;4236736;27;20497;-71
2022/09/09 06:12:28;;;;;;;2.60;1.73;;;;;;;15.18;82.15;98114.75;4237202;27;20403;-71
2022/09/09 06:14:28;;;;;;;3.35;1.60;;;;;;;15.29;80.87;98109.03;4236908;27;20270;-71
2022/09/09 06:16:32;;;;;;;2.47;1.67;;;;;;;15.37;80.10;98102.16;4236906;27;20560;-71
2022/09/09 06:18:33;;;;;;;5.68;1.58;;;;;;;15.45;80.74;98107.19;4236231;27;20039;-71
2022/09/09 06:20:34;;;;;;;2.70;1.60;;;;;;;15.49;80.18;98112.75;4237033;27;20070;-71
2022/09/09 06:22:34;;;;;;;4.43;1.30;;;;;;;15.53;80.44;98115.47;4236784;27;20384;-71
2022/09/09 06:24:35;;;;;;;3.00;1.50;;;;;;;15.57;79.76;98119.00;4236101;27;20432;-71
2022/09/09 06:26:40;;;;;;;3.15;1.15;;;;;;;15.60;79.55;98118.94;4236652;27;20434;-71
2022/09/09 06:28:42;;;;;;;2.53;1.30;;;;;;;15.60;80.17;98118.94;4236105;27;20051;-71
2022/09/09 06:30:43;;;;;;;3.88;1.45;;;;;;;15.61;79.66;98120.56;4236486;27;20031;-71
2022/09/09 06:32:44;;;;;;;5.32;1.60;;;;;;;15.60;79.36;98116.16;4236277;27;20092;-71
2022/09/09 06:34:45;;;;;;;2.42;1.38;;;;;;;15.61;79.57;98123.34;4236588;27;20039;-71
2022/09/09 06:36:46;;;;;;;2.83;1.45;;;;;;;15.58;79.79;98126.16;4236865;27;20043;-71
2022/09/09 06:38:46;;;;;;;3.83;1.55;;;;;;;15.56;79.87;98111.88;4235622;27;20035;-71
2022/09/09 06:40:58;;;;;;;4.03;1.70;;;;;;;15.51;80.08;98118.69;4236521;27;20047;-71
2022/09/09 06:43:02;;;;;;;4.55;1.73;;;;;;;15.49;79.98;98129.47;4236027;27;20043;-71
2022/09/09 06:45:02;;;;;;;1.30;1.15;;;;;;;15.45;80.30;98121.13;4236378;27;20390;-71
2022/09/09 06:47:03;;;;;;;1.83;1.50;;;;;;;15.44;80.17;98129.94;4236451;27;20298;-72
2022/09/09 06:49:03;;;;;;;2.40;1.35;;;;;;;15.43;80.51;98122.78;4236281;27;20046;-71
2022/09/09 06:51:06;;;;;;;3.55;2.28;;;;;;;15.52;79.94;98125.84;4236496;27;20047;-71
2022/09/09 06:53:06;;;;;;;1.88;1.48;;;;;;;15.56;80.08;98131.38;4236259;27;20047;-71
2022/09/09 06:55:08;;;;;;;2.95;1.45;;;;;;;15.58;79.67;98131.75;4236595;28;20452;-71
2022/09/09 06:57:08;;;;;;;2.47;1.33;;;;;;;15.66;79.14;98130.47;4236541;28;20294;-71
2022/09/09 06:59:09;;;;;;;1.63;1.38;;;;;;;15.78;79.35;98131.88;4239259;27;20035;-71
2022/09/09 07:01:15;;;;;;;4.38;1.42;;;;;;;15.88;79.01;98126.13;4242456;27;20245;-71
2022/09/09 07:03:15;;;;;;;4.07;1.27;;;;;;;15.96;77.97;98137.97;4223950;27;20047;-71
2022/09/09 07:05:15;;;;;;;4.25;1.92;;;;;;;16.06;77.48;98139.03;4241775;27;20375;-71
2022/09/09 07:07:17;;;;;;;2.22;1.50;;;;;;;16.05;77.42;98132.63;4241871;27;20441;-71
2022/09/09 07:09:17;;;;;;;3.53;1.52;;;;;;;16.12;77.21;98140.91;4241809;27;20080;-71
2022/09/09 07:11:20;;;;;;;3.53;1.67;;;;;;;16.28;76.36;98137.47;4242431;27;20092;-71
2022/09/09 07:13:25;;;;;;;2.13;1.35;;;;;;;16.42;75.95;98126.06;4241838;27;20550;-71
2022/09/09 07:15:26;;;;;;;2.97;1.15;;;;;;;16.47;75.80;98122.78;4241890;27;20043;-71
2022/09/09 07:17:28;;;;;;;2.08;1.27;;;;;;;16.73;75.12;98118.34;4241898;27;20066;-71
2022/09/09 07:19:28;;;;;;;3.13;1.37;;;;;;;16.76;75.20;98114.69;4241267;27;20253;-71
2022/09/09 07:21:30;;;;;;;3.75;1.65;;;;;;;16.82;75.70;98117.78;4241697;27;20039;-71
2022/09/09 07:23:30;;;;;;;3.38;1.38;;;;;;;16.82;75.50;98120.56;4241746;27;20046;-71
2022/09/09 07:25:31;;;;;;;4.18;1.33;;;;;;;16.84;75.18;98118.13;4241700;27;20051;-71
2022/09/09 07:27:31;;;;;;;3.70;1.58;;;;;;;16.91;75.70;98118.00;4242373;27;20436;-71
2022/09/09 07:29:31;;;;;;;4.05;1.30;;;;;;;16.97;74.53;98121.09;4241175;27;20435;-71
2022/09/09 07:31:36;;;;;;;3.30;1.20;;;;;;;17.03;74.52;98114.56;4241672;27;20039;-71
2022/09/09 07:33:36;;;;;;;3.22;1.20;;;;;;;17.08;74.56;98124.44;4241610;27;20058;-72
2022/09/09 07:35:37;;;;;;;3.40;1.52;;;;;;;17.15;75.01;98123.53;4241735;27;20054;-71
2022/09/09 07:37:37;;;;;;;7.53;1.52;;;;;;;17.19;74.07;98121.44;4242182;27;20075;-71
2022/09/09 07:39:38;;;;;;;4.65;1.52;;;;;;;17.27;74.82;98123.66;4241255;27;20088;-71
2022/09/09 07:41:40;;;;;;;3.78;1.40;;;;;;;17.31;74.51;98126.38;4242055;27;20494;-71
2022/09/09 07:43:46;;;;;;;3.40;1.25;;;;;;;17.33;74.27;98126.72;4241841;27;20038;-71
2022/09/09 07:45:47;;;;;;;4.00;1.35;;;;;;;17.32;74.07;98125.94;4240584;27;20617;-71
2022/09/09 07:47:48;;;;;;;3.35;1.30;;;;;;;17.35;74.22;98124.28;4241746;27;20127;-71
2022/09/09 07:49:49;;;;;;;2.80;1.10;;;;;;;17.30;74.22;98133.19;4240959;27;20084;-71
2022/09/09 07:51:50;;;;;;;4.65;1.50;;;;;;;17.22;74.99;98138.16;4241235;27;20055;-71
2022/09/09 07:53:57;;;;;;;1.95;1.23;;;;;;;17.14;74.91;98150.69;4241850;27;20346;-71
2022/09/09 07:56:06;;;;;;;4.90;1.20;;;;;;;17.04;75.71;98146.88;4241526;27;20047;-71
2022/09/09 07:58:07;;;;;;;3.63;1.60;;;;;;;17.00;75.57;98146.16;4241168;27;20046;-72
2022/09/09 08:00:08;;;;;;;3.63;1.48;;;;;;;17.00;76.62;98154.53;4241246;27;20193;-71
2022/09/09 08:02:09;;;;;;;2.63;1.23;;;;;;;17.06;75.92;98147.25;4241317;27;20039;-71
2022/09/09 08:04:16;;;;;;;2.40;1.23;;;;;;;17.22;75.83;98152.13;4241664;27;20700;-72
2022/09/09 08:06:16;;;;;;;3.95;1.40;;;;;;;17.33;74.71;98147.09;4241697;27;20101;-72
2022/09/09 08:08:16;;;;;;;2.47;1.25;;;;;;;17.51;74.47;98159.91;4241689;27;20051;-72
2022/09/09 08:10:17;;;;;;;2.70;1.40;;;;;;;17.60;73.25;98155.28;4238226;27;20469;-71
2022/09/09 08:12:18;;;;;;;2.78;1.50;;;;;;;17.68;73.11;98155.94;4238540;27;20340;-71
2022/09/09 08:14:19;;;;;;;5.22;1.38;;;;;;;17.72;72.67;98147.50;4238966;27;20063;-71
2022/09/09 08:16:27;;;;;;;4.35;1.58;;;;;;;17.78;72.01;98151.34;4238893;27;20038;-71
2022/09/09 08:18:28;;;;;;;3.08;1.70;;;;;;;17.86;73.06;98147.94;4238164;27;20490;-71
2022/09/09 08:20:28;;;;;;;2.75;1.73;;;;;;;17.95;72.87;98152.94;4238372;27;20071;-71
2022/09/09 08:22:29;;;;;;;2.63;1.63;;;;;;;17.98;71.93;98152.09;4239032;27;20122;-71
2022/09/09 08:24:29;;;;;;;3.60;1.70;;;;;;;18.00;71.00;98154.44;4238301;27;20047;-71
2022/09/09 08:26:35;;;;;;;5.15;1.85;;;;;;;18.03;70.98;98156.38;4238858;27;20074;-71
2022/09/09 08:28:35;;;;;;;7.30;1.80;;;;;;;18.10;71.21;98159.00;4238272;27;20450;-71
2022/09/09 08:30:37;;;;;;;3.60;1.70;;;;;;;18.15;71.63;98152.91;4238792;27;20043;-71
2022/09/09 08:32:37;;;;;;;3.33;1.40;;;;;;;18.18;70.68;98157.59;4238341;27;20043;-71
2022/09/09 08:34:37;;;;;;;4.65;1.63;;;;;;;18.31;72.08;98157.72;4238018;27;20046;-71
2022/09/09 08:36:42;;;;;;;3.08;1.52;;;;;;;18.34;70.40;98149.22;4238777;27;20047;-71
2022/09/09 08:38:43;;;;;;;3.17;1.77;;;;;;;18.47;70.54;98152.09;4238226;27;20050;-71
2022/09/09 08:40:49;;;;;;;4.30;1.40;;;;;;;18.50;70.32;98152.00;4238668;27;20046;-71
2022/09/09 08:42:52;;;;;;;4.40;1.85;;;;;;;18.49;70.80;98158.06;4238353;27;20039;-71
2022/09/09 08:45:19;;;;;;;1.55;1.23;;;;;;;18.47;69.90;98152.09;4237825;27;20047;-71
2022/09/09 08:47:53;;;;;;;3.30;1.65;;;;;;;18.46;70.02;98159.72;4219624;28;20432;-71
2022/09/09 08:50:31;;;;;;;3.92;1.45;;;;;;;18.47;69.46;98169.69;4237239;27;20041;-71
2022/09/09 08:52:40;;;;;;;4.45;1.45;;;;;;;18.47;70.31;98158.50;4238209;27;20078;-71
2022/09/09 08:54:41;;;;;;;2.58;1.50;;;;;;;18.46;69.54;98164.53;4238363;27;20043;-71
2022/09/09 08:56:42;;;;;;;2.53;1.60;;;;;;;18.46;69.31;98165.31;4238135;27;20135;-71
2022/09/09 08:58:48;;;;;;;6.35;1.52;;;;;;;18.43;67.52;98173.81;4238050;27;20855;-71
2022/09/09 09:00:55;;;;;;;4.53;1.52;;;;;;;18.41;68.36;98171.44;4237689;27;20035;-71
2022/09/09 09:03:29;;;;;;;3.42;1.60;;;;;;;18.38;69.43;98172.34;4219200;28;20130;-71
2022/09/09 09:05:44;;;;;;;4.82;1.75;;;;;;;18.46;68.58;98178.53;4238032;27;20069;-71
2022/09/09 09:08:13;;;;;;;4.25;1.30;;;;;;;18.52;67.40;98173.97;4237852;27;20492;-71
2022/09/09 09:10:30;;;;;;;2.35;1.00;;;;;;;18.58;66.89;98186.22;4236748;27;20886;-71
2022/09/09 09:12:43;;;;;;;9.23;3.28;;;;;;;18.59;66.53;98171.00;4237209;27;20506;-71
2022/09/09 09:14:45;;;;;;;;;;;;;;;18.59;66.66;98181.41;4238029;27;20150;-71
2022/09/09 09:16:57;;;;;;;4.10;1.60;;;;;;;18.52;66.78;98183.16;4238405;27;20367;-71
2022/09/09 09:18:59;;;;;;;5.43;1.60;;;;;;;18.49;66.27;98183.25;4235786;27;20032;-71
2022/09/09 09:21:10;;;;;;;5.80;1.38;;;;;;;18.47;66.65;98180.13;4237559;27;20291;-71
2022/09/09 09:23:22;;;;;;;1.95;1.05;;;;;;;18.47;67.00;98186.50;4237367;27;20048;-71
2022/09/09 09:25:28;;;;;;;3.22;1.40;;;;;;;18.46;67.31;98182.13;4237411;27;20054;-71
2022/09/09 09:27:42;;;;;;;4.05;1.30;;;;;;;18.49;66.82;98192.44;4237629;27;20502;-71
2022/09/09 09:29:44;;;;;;;2.55;1.00;;;;;;;18.47;67.33;98183.72;4237071;27;20134;-71
2022/09/09 09:31:58;;;;;;;4.43;1.60;;;;;;;18.50;68.06;98176.44;4237283;27;20039;-71
2022/09/09 09:33:59;;;;;;;1.50;1.15;;;;;;;18.47;67.68;98174.53;4236705;27;20088;-71
2022/09/09 09:35:59;;;;;;;5.15;1.38;;;;;;;18.52;66.60;98187.97;4238439;27;20059;-71
2022/09/09 09:38:00;;;;;;;7.75;1.48;;;;;;;18.49;67.00;98194.47;4236358;27;20075;-71
2022/09/09 09:40:12;;;;;;;3.28;1.20;;;;;;;18.50;66.56;98182.81;4237109;27;20074;-71
2022/09/09 09:42:15;;;;;;;3.85;1.50;;;;;;;18.50;67.00;98177.22;4236063;27;20027;-71
2022/09/09 09:44:28;;;;;;;2.75;1.35;;;;;;;18.56;68.04;98183.09;4237263;27;20190;-71
2022/09/09 09:46:28;;;;;;;2.95;1.40;;;;;;;18.64;67.40;98175.28;4236187;27;20181;-71
2022/09/09 09:48:29;;;;;;;4.10;1.40;;;;;;;18.73;67.39;98170.66;4236698;27;20486;-71
2022/09/09 09:50:31;;;;;;;2.90;1.80;;;;;;;18.84;68.36;98175.19;4237480;27;20043;-71